createdAt,value
2023-04-22T00:00:17.423Z,53.51
2023-04-22T00:02:44.650Z,53.46
2023-04-22T00:05:15.644Z,54.01
2023-04-22T00:07:44.301Z,53.81
2023-04-22T00:10:11.908Z,53.93
2023-04-22T00:12:39.038Z,53.76
2023-04-22T00:15:06.866Z,53.70
2023-04-22T00:17:34.231Z,53.94
2023-04-22T00:20:01.947Z,54.33
2023-04-22T00:22:29.012Z,54.59
2023-04-22T00:24:56.223Z,55.05
2023-04-22T00:27:23.230Z,55.18
2023-04-22T00:29:50.295Z,55.33
2023-04-22T00:32:17.288Z,55.06
2023-04-22T00:34:44.274Z,55.38
2023-04-22T00:37:11.424Z,55.46
2023-04-22T00:39:39.957Z,55.27
2023-04-22T00:42:07.996Z,55.54
2023-04-22T00:44:36.573Z,56.12
2023-04-22T00:47:04.486Z,56.08
2023-04-22T00:49:32.441Z,55.70
2023-04-22T00:51:59.433Z,55.25
2023-04-22T00:54:26.782Z,55.36
2023-04-22T00:56:53.764Z,55.44
2023-04-22T00:59:22.529Z,56.16
2023-04-22T01:01:49.989Z,56.32
2023-04-22T01:04:17.962Z,56.66
2023-04-22T01:06:45.448Z,56.61
2023-04-22T01:09:13.316Z,56.64
2023-04-22T01:11:41.030Z,56.79
2023-04-22T01:14:08.118Z,56.98
2023-04-22T01:16:35.981Z,57.43
2023-04-22T01:19:03.111Z,57.78
2023-04-22T01:21:33.598Z,57.27
2023-04-22T01:24:02.118Z,57.95
2023-04-22T01:26:29.578Z,57.61
2023-04-22T01:28:56.762Z,58.19
2023-04-22T01:31:24.174Z,58.41
2023-04-22T01:33:51.708Z,58.39
2023-04-22T01:36:18.889Z,59.10
2023-04-22T01:38:46.024Z,59.28
2023-04-22T01:41:14.743Z,59.40
2023-04-22T01:43:43.221Z,60.10
2023-04-22T01:46:10.428Z,59.57
2023-04-22T01:48:38.299Z,59.82
2023-04-22T01:51:05.706Z,60.41
2023-04-22T01:53:32.744Z,61.10
2023-04-22T01:56:00.477Z,61.16
2023-04-22T01:58:29.860Z,61.28
2023-04-22T02:00:57.189Z,61.50
2023-04-22T02:03:24.363Z,61.02
2023-04-22T02:05:51.572Z,61.46
2023-04-22T02:08:18.606Z,60.68
2023-04-22T02:10:45.668Z,60.54
2023-04-22T02:13:12.680Z,60.86
2023-04-22T02:19:49.164Z,61.46
2023-04-22T02:22:17.255Z,61.96
2023-04-22T02:24:44.306Z,61.78
2023-04-22T02:27:11.307Z,62.17
2023-04-22T02:29:38.876Z,62.42
2023-04-22T02:32:06.354Z,63.06
2023-04-22T02:34:33.370Z,62.67
2023-04-22T02:37:00.433Z,62.46
2023-04-22T02:39:27.417Z,62.53
2023-04-22T02:41:54.787Z,62.09
2023-04-22T02:44:21.790Z,61.89
2023-04-22T02:46:49.287Z,61.19
2023-04-22T02:49:16.358Z,61.48
2023-04-22T02:51:43.375Z,61.53
2023-04-22T02:54:10.397Z,61.24
2023-04-22T02:56:37.405Z,60.70
2023-04-22T02:59:04.637Z,61.00
2023-04-22T03:01:32.368Z,61.20
2023-04-22T03:03:59.825Z,61.40
2023-04-22T03:06:27.281Z,61.99
2023-04-22T03:08:54.289Z,61.21
2023-04-22T03:11:21.442Z,61.60
2023-04-22T03:13:48.511Z,62.84
2023-04-22T03:16:17.702Z,62.33
2023-04-22T03:18:44.799Z,62.51
2023-04-22T03:21:11.774Z,62.27
2023-04-22T03:23:38.888Z,63.13
2023-04-22T03:26:06.260Z,62.74
2023-04-22T03:28:33.665Z,63.09
2023-04-22T03:31:00.687Z,62.30
2023-04-22T03:33:27.696Z,62.77
2023-04-22T03:35:55.259Z,63.16
2023-04-22T03:38:22.312Z,62.18
2023-04-22T03:40:51.001Z,61.97
2023-04-22T03:43:18.630Z,62.65
2023-04-22T03:45:47.225Z,62.48
2023-04-22T03:48:14.268Z,61.42
2023-04-22T03:50:41.310Z,61.57
2023-04-22T03:53:08.335Z,60.63
2023-04-22T03:55:35.375Z,57.89
2023-04-22T03:58:02.440Z,55.49
2023-04-22T04:00:29.496Z,53.21
2023-04-22T04:02:56.637Z,50.20
2023-04-22T04:05:23.801Z,47.37
2023-04-22T04:07:51.105Z,45.95
2023-04-22T04:10:18.177Z,43.94
2023-04-22T04:12:45.166Z,42.47
2023-04-22T04:15:12.265Z,40.32
2023-04-22T04:17:39.784Z,38.80
2023-04-22T04:20:07.541Z,37.95
2023-04-22T04:22:35.087Z,35.88
2023-04-22T04:25:02.620Z,35.03
2023-04-22T04:27:29.822Z,33.31
2023-04-22T04:29:56.965Z,33.32
2023-04-22T04:32:25.066Z,32.28
2023-04-22T04:34:52.726Z,32.22
2023-04-22T04:37:19.737Z,31.18
2023-04-22T04:39:46.746Z,30.18
2023-04-22T04:42:14.491Z,29.23
2023-04-22T04:44:41.558Z,28.56
2023-04-22T04:47:08.596Z,27.48
2023-04-22T04:49:39.976Z,26.38
2023-04-22T04:52:10.263Z,25.33
2023-04-22T04:54:37.664Z,25.06
2023-04-22T04:57:06.057Z,24.48
2023-04-22T04:59:33.070Z,23.50
2023-04-22T05:02:00.127Z,21.59
2023-04-22T05:04:27.615Z,20.86
2023-04-22T05:06:54.831Z,21.01
2023-04-22T05:09:21.830Z,19.49
2023-04-22T05:11:48.814Z,20.21
2023-04-22T05:14:15.799Z,20.14
2023-04-22T05:16:42.971Z,19.83
2023-04-22T05:19:10.057Z,19.68
2023-04-22T05:21:37.088Z,18.11
2023-04-22T05:24:04.360Z,18.13
2023-04-22T05:26:31.369Z,17.91
2023-04-22T05:28:58.373Z,18.00
2023-04-22T05:31:25.397Z,17.61
2023-04-22T05:33:52.429Z,17.78
2023-04-22T05:36:19.437Z,18.10
2023-04-22T05:38:46.478Z,17.03
2023-04-22T05:41:13.523Z,16.87
2023-04-22T05:43:40.570Z,16.81
2023-04-22T05:46:07.707Z,16.98
2023-04-22T05:48:34.781Z,16.75
2023-04-22T05:51:02.008Z,15.84
2023-04-22T05:53:29.005Z,16.15
2023-04-22T05:55:56.114Z,15.98
2023-04-22T05:58:23.262Z,16.04
2023-04-22T06:00:50.264Z,16.03
2023-04-22T06:03:17.423Z,15.20
2023-04-22T06:05:44.770Z,16.15
2023-04-22T06:08:11.847Z,15.71
2023-04-22T06:10:39.002Z,14.79
2023-04-22T06:13:06.275Z,14.87
2023-04-22T06:15:34.944Z,14.33
2023-04-22T06:18:02.289Z,14.49
2023-04-22T06:20:29.512Z,15.05
2023-04-22T06:22:56.539Z,15.35
2023-04-22T06:25:23.617Z,13.85
2023-04-22T06:27:51.021Z,14.12
2023-04-22T06:30:18.094Z,14.92
2023-04-22T06:32:45.246Z,14.18
2023-04-22T06:35:12.346Z,13.57
2023-04-22T06:37:39.356Z,13.64
2023-04-22T06:40:07.499Z,13.12
2023-04-22T06:42:34.707Z,12.83
2023-04-22T06:45:02.135Z,13.31
2023-04-22T06:47:29.275Z,13.29
2023-04-22T06:49:56.263Z,13.45
2023-04-22T06:52:24.261Z,12.98
2023-04-22T06:54:51.371Z,12.99
2023-04-22T06:57:18.370Z,12.36
2023-04-22T06:59:46.803Z,13.00
2023-04-22T07:02:14.426Z,13.59
2023-04-22T07:04:41.760Z,13.73
2023-04-22T07:07:09.238Z,13.56
2023-04-22T07:09:37.131Z,13.97
2023-04-22T07:12:04.728Z,13.36
2023-04-22T07:14:32.352Z,14.48
2023-04-22T07:17:00.241Z,14.18
2023-04-22T07:19:27.377Z,13.81
2023-04-22T07:21:54.634Z,13.45
2023-04-22T07:24:21.787Z,13.67
2023-04-22T07:26:48.996Z,15.05
2023-04-22T07:29:16.056Z,14.65
2023-04-22T07:31:44.078Z,15.40
2023-04-22T07:34:11.275Z,15.63
2023-04-22T07:36:38.537Z,15.60
2023-04-22T07:39:05.819Z,15.87
2023-04-22T07:41:32.863Z,15.28
2023-04-22T07:44:00.517Z,14.52
2023-04-22T07:46:27.736Z,13.92
2023-04-22T07:48:55.155Z,14.74
2023-04-22T07:51:22.219Z,15.94
2023-04-22T07:53:49.280Z,16.26
2023-04-22T07:56:16.325Z,16.04
2023-04-22T07:58:43.348Z,15.20
2023-04-22T08:01:10.476Z,15.06
2023-04-22T08:03:37.928Z,15.35
2023-04-22T08:06:05.147Z,15.92
2023-04-22T08:08:32.196Z,15.27
2023-04-22T08:10:59.175Z,15.79
2023-04-22T08:13:26.206Z,16.18
2023-04-22T08:15:53.326Z,17.06
2023-04-22T08:18:20.759Z,16.69
2023-04-22T08:20:48.116Z,17.09
2023-04-22T08:23:15.456Z,16.46
2023-04-22T08:25:42.851Z,17.14
2023-04-22T08:28:09.959Z,17.43
2023-04-22T08:30:36.981Z,16.54
2023-04-22T08:33:03.992Z,16.57
2023-04-22T08:35:31.343Z,16.38
2023-04-22T08:37:58.436Z,15.91
2023-04-22T08:40:27.772Z,17.27
2023-04-22T08:42:58.616Z,17.89
2023-04-22T08:45:25.864Z,18.33
2023-04-22T08:47:54.250Z,18.18
2023-04-22T08:50:25.568Z,18.71
2023-04-22T08:52:52.624Z,17.61
2023-04-22T08:55:19.880Z,17.27
2023-04-22T08:57:48.822Z,17.47
2023-04-22T09:00:16.733Z,17.26
2023-04-22T09:02:45.826Z,17.56
2023-04-22T09:05:14.996Z,17.97
2023-04-22T09:07:42.419Z,19.41
2023-04-22T09:10:11.890Z,18.13
2023-04-22T09:12:40.886Z,18.47
2023-04-22T09:15:09.806Z,18.47
2023-04-22T09:17:39.214Z,18.41
2023-04-22T09:20:08.889Z,18.51
2023-04-22T09:22:49.019Z,18.85
2023-04-22T09:25:25.631Z,19.46
2023-04-22T09:27:59.851Z,19.48
2023-04-22T09:30:33.589Z,20.67
2023-04-22T09:33:03.178Z,20.27
2023-04-22T09:35:37.155Z,20.81
2023-04-22T09:38:10.430Z,20.40
2023-04-22T09:40:42.332Z,19.41
2023-04-22T09:43:10.195Z,19.79
2023-04-22T09:45:41.504Z,19.90
2023-04-22T09:48:13.795Z,20.57
2023-04-22T09:50:49.964Z,21.90
2023-04-22T09:53:22.027Z,20.64
2023-04-22T09:55:53.327Z,20.50
2023-04-22T09:58:27.752Z,19.98
2023-04-22T10:00:58.136Z,19.39
2023-04-22T10:03:25.354Z,19.45
2023-04-22T10:05:52.489Z,19.31
2023-04-22T10:08:19.536Z,18.69
2023-04-22T10:10:46.830Z,19.90
2023-04-22T10:13:13.997Z,20.50
2023-04-22T10:15:47.934Z,21.72
2023-04-22T10:18:22.894Z,21.74
2023-04-22T10:20:51.286Z,21.19
2023-04-22T10:23:24.374Z,20.21
2023-04-22T10:25:55.395Z,21.26
2023-04-22T10:28:24.506Z,20.24
2023-04-22T10:30:51.942Z,21.87
2023-04-22T10:33:21.783Z,21.98
2023-04-22T10:36:09.633Z,22.13
2023-04-22T10:38:55.620Z,22.46
2023-04-22T10:41:31.374Z,22.92
2023-04-22T10:44:08.145Z,22.25
2023-04-22T10:46:37.144Z,22.12
2023-04-22T10:49:13.954Z,21.46
2023-04-22T10:51:48.324Z,23.09
2023-04-22T10:54:30.634Z,23.11
2023-04-22T10:57:22.841Z,22.34
2023-04-22T10:59:58.520Z,24.20
2023-04-22T11:02:26.126Z,22.95
2023-04-22T11:05:21.906Z,21.76
2023-04-22T11:07:53.232Z,24.57
2023-04-22T11:10:44.579Z,23.26
2023-04-22T11:13:21.495Z,23.20
2023-04-22T11:15:55.230Z,23.34
2023-04-22T11:18:25.966Z,23.00
2023-04-22T11:20:53.898Z,22.87
2023-04-22T11:23:27.193Z,23.27
2023-04-22T11:26:02.387Z,23.46
2023-04-22T11:28:29.680Z,22.98
2023-04-22T11:31:05.688Z,24.46
2023-04-22T11:33:34.810Z,24.22
2023-04-22T11:36:02.239Z,24.09
2023-04-22T11:38:29.231Z,24.28
2023-04-22T11:40:58.451Z,24.33
2023-04-22T11:43:25.550Z,23.62
2023-04-22T11:45:55.669Z,25.44
2023-04-22T11:48:22.871Z,24.68
2023-04-22T11:51:06.550Z,25.04
2023-04-22T11:53:33.512Z,24.72
2023-04-22T11:56:02.722Z,24.50
2023-04-22T11:58:29.746Z,26.53
2023-04-22T12:01:00.767Z,25.55
2023-04-22T12:03:30.559Z,25.79
2023-04-22T12:06:06.016Z,26.46
2023-04-22T12:08:44.392Z,25.45
2023-04-22T12:11:12.566Z,25.49
2023-04-22T12:13:42.113Z,25.75
2023-04-22T12:16:20.086Z,24.46
2023-04-22T12:18:55.558Z,24.88
2023-04-22T12:21:25.199Z,25.88
2023-04-22T12:24:00.648Z,25.05
2023-04-22T12:26:28.314Z,26.38
2023-04-22T12:28:58.233Z,26.42
2023-04-22T12:31:26.934Z,25.96
2023-04-22T12:33:54.268Z,25.84
2023-04-22T12:36:22.048Z,26.03
2023-04-22T12:38:49.803Z,26.71
2023-04-22T12:41:17.120Z,26.42
2023-04-22T12:43:44.411Z,25.60
2023-04-22T12:46:11.466Z,25.81
2023-04-22T12:48:38.542Z,26.06
2023-04-22T12:51:06.993Z,25.58
2023-04-22T12:53:34.495Z,25.68
2023-04-22T12:56:01.685Z,25.35
2023-04-22T12:58:28.798Z,25.62
2023-04-22T13:00:55.792Z,25.48
2023-04-22T13:03:22.993Z,26.08
2023-04-22T13:05:50.413Z,25.79
2023-04-22T13:08:18.021Z,26.51
2023-04-22T13:10:45.036Z,26.16
2023-04-22T13:15:42.018Z,26.00
2023-04-22T13:18:09.094Z,25.95
2023-04-22T13:20:36.229Z,26.37
2023-04-22T13:23:04.726Z,25.71
2023-04-22T13:25:32.090Z,26.15
2023-04-22T13:27:59.079Z,26.20
2023-04-22T13:30:26.247Z,26.64
2023-04-22T13:32:53.442Z,26.46
2023-04-22T13:35:20.856Z,26.29
2023-04-22T13:37:47.866Z,26.51
2023-04-22T13:40:15.273Z,26.52
2023-04-22T13:42:44.381Z,26.28
2023-04-22T13:45:11.528Z,26.74
2023-04-22T13:47:38.527Z,26.34
2023-04-22T13:50:06.586Z,26.38
2023-04-22T13:52:34.015Z,26.89
2023-04-22T13:55:03.134Z,26.46
2023-04-22T13:57:30.635Z,26.58
2023-04-22T13:59:57.715Z,26.76
2023-04-22T14:02:24.799Z,26.77
2023-04-22T14:04:52.148Z,26.98
2023-04-22T14:07:19.173Z,26.93
2023-04-22T14:09:46.223Z,27.58
2023-04-22T14:12:13.788Z,27.39
2023-04-22T14:14:40.828Z,26.98
2023-04-22T14:17:08.247Z,27.09
2023-04-22T14:19:39.107Z,26.69
2023-04-22T14:22:06.700Z,27.41
2023-04-22T14:24:33.929Z,27.42
2023-04-22T14:27:01.870Z,27.82
2023-04-22T14:29:29.937Z,27.92
2023-04-22T14:31:58.438Z,27.70
2023-04-22T14:34:26.950Z,28.06
2023-04-22T14:36:54.256Z,26.42
2023-04-22T14:39:21.573Z,26.86
2023-04-22T14:41:49.263Z,26.77
2023-04-22T14:44:16.652Z,26.40
2023-04-22T14:46:43.857Z,26.51
2023-04-22T14:49:10.857Z,27.31
2023-04-22T14:51:37.890Z,27.15
2023-04-22T14:54:05.539Z,26.25
2023-04-22T14:56:32.544Z,26.48
2023-04-22T14:58:59.666Z,27.46
2023-04-22T15:01:26.710Z,26.89
2023-04-22T15:03:53.878Z,27.25
2023-04-22T15:06:23.050Z,26.93
2023-04-22T15:08:51.825Z,27.67
2023-04-22T15:11:18.990Z,27.34
2023-04-22T15:13:46.117Z,27.39
2023-04-22T15:16:13.558Z,27.66
2023-04-22T15:18:40.928Z,27.59
2023-04-22T15:21:10.554Z,27.53
2023-04-22T15:23:37.753Z,27.80
2023-04-22T15:26:04.889Z,28.61
2023-04-22T15:28:31.912Z,28.54
2023-04-22T15:30:59.092Z,28.34
2023-04-22T15:33:26.153Z,27.97
2023-04-22T15:35:53.281Z,28.23
2023-04-22T15:38:20.300Z,28.20
2023-04-22T15:40:47.322Z,28.29
2023-04-22T15:43:14.306Z,28.36
2023-04-22T15:45:41.398Z,28.49
2023-04-22T15:48:09.620Z,29.07
2023-04-22T15:50:38.773Z,29.04
2023-04-22T15:53:06.873Z,29.52
2023-04-22T15:55:33.858Z,29.48
2023-04-22T15:58:00.834Z,29.46
2023-04-22T16:00:27.956Z,29.36
2023-04-22T16:02:55.676Z,28.87
2023-04-22T16:05:24.940Z,28.73
2023-04-22T16:07:53.348Z,29.09
2023-04-22T16:10:20.873Z,28.84
2023-04-22T16:12:48.012Z,28.93
2023-04-22T16:15:15.108Z,28.56
2023-04-22T16:17:43.155Z,28.63
2023-04-22T16:20:10.754Z,28.80
2023-04-22T16:22:37.789Z,28.44
2023-04-22T16:25:05.733Z,28.86
2023-04-22T16:27:32.900Z,28.65
2023-04-22T16:29:59.928Z,28.80
2023-04-22T16:32:27.059Z,28.93
2023-04-22T16:34:54.048Z,29.18
2023-04-22T16:37:21.083Z,29.50
2023-04-22T16:39:48.128Z,29.11
2023-04-22T16:42:15.224Z,29.51
2023-04-22T16:44:42.224Z,29.46
2023-04-22T16:47:09.269Z,29.72
2023-04-22T16:49:36.281Z,29.43
2023-04-22T16:52:03.604Z,29.69
2023-04-22T16:54:30.563Z,29.66
2023-04-22T16:56:57.777Z,29.57
2023-04-22T16:59:24.934Z,30.35
2023-04-22T17:01:52.267Z,30.08
2023-04-22T17:04:19.520Z,29.93
2023-04-22T17:06:46.661Z,30.50
2023-04-22T17:09:13.676Z,30.50
2023-04-22T17:11:40.676Z,30.40
2023-04-22T17:14:07.981Z,30.42
2023-04-22T17:16:35.082Z,30.41
2023-04-22T17:19:02.121Z,31.42
2023-04-22T17:21:29.389Z,31.34
2023-04-22T17:23:58.644Z,30.81
2023-04-22T17:26:25.965Z,30.79
2023-04-22T17:28:52.969Z,30.99
2023-04-22T17:31:20.461Z,31.27
2023-04-22T17:33:47.973Z,31.52
2023-04-22T17:36:15.055Z,31.85
2023-04-22T17:38:42.070Z,32.34
2023-04-22T17:41:09.131Z,32.69
2023-04-22T17:43:36.299Z,33.07
2023-04-22T17:46:03.390Z,33.06
2023-04-22T17:48:30.388Z,33.74
2023-04-22T17:51:01.397Z,33.54
2023-04-22T17:53:28.428Z,34.60
2023-04-22T17:55:55.496Z,34.70
2023-04-22T17:58:22.592Z,34.68
2023-04-22T18:00:49.606Z,34.85
2023-04-22T18:03:17.591Z,34.80
2023-04-22T18:05:44.765Z,34.85
2023-04-22T18:08:11.899Z,34.33
2023-04-22T18:10:39.480Z,34.05
2023-04-22T18:13:06.930Z,33.96
2023-04-22T18:15:34.010Z,34.87
2023-04-22T18:18:01.399Z,35.28
2023-04-22T18:20:28.558Z,35.86
2023-04-22T18:22:56.535Z,35.58
2023-04-22T18:25:24.311Z,36.05
2023-04-22T18:27:55.045Z,35.59
2023-04-22T18:30:25.436Z,35.33
2023-04-22T18:32:52.688Z,35.18
2023-04-22T18:35:20.253Z,35.39
2023-04-22T18:37:47.452Z,35.55
2023-04-22T18:40:15.059Z,35.55
2023-04-22T18:42:44.847Z,35.87
2023-04-22T18:45:12.249Z,36.17
2023-04-22T18:47:39.351Z,36.97
2023-04-22T18:50:07.208Z,37.03
2023-04-22T18:52:34.665Z,38.00
2023-04-22T18:55:01.687Z,38.09
2023-04-22T18:57:28.880Z,38.46
2023-04-22T18:59:56.190Z,38.31
2023-04-22T19:02:23.331Z,38.47
2023-04-22T19:04:51.366Z,38.62
2023-04-22T19:07:18.377Z,38.83
2023-04-22T19:09:45.531Z,39.42
2023-04-22T19:12:14.809Z,39.14
2023-04-22T19:14:42.447Z,39.41
2023-04-22T19:17:09.944Z,39.38
2023-04-22T19:19:36.933Z,39.68
2023-04-22T19:22:03.955Z,39.55
2023-04-22T19:24:33.623Z,39.69
2023-04-22T19:27:06.959Z,39.82
2023-04-22T19:29:34.099Z,40.04
2023-04-22T19:32:01.876Z,39.90
2023-04-22T19:34:29.134Z,41.01
2023-04-22T19:36:56.306Z,41.30
2023-04-22T19:39:23.665Z,41.88
2023-04-22T19:41:51.742Z,42.50
2023-04-22T19:44:18.959Z,42.94
2023-04-22T19:46:45.988Z,43.29
2023-04-22T19:49:13.494Z,43.03
2023-04-22T19:51:41.880Z,43.59
2023-04-22T19:54:10.933Z,43.50
2023-04-22T19:56:38.676Z,43.40
2023-04-22T19:59:07.055Z,44.06
2023-04-22T20:01:35.150Z,43.87
2023-04-22T20:04:04.239Z,43.78
2023-04-22T20:06:32.705Z,44.04
2023-04-22T20:09:01.623Z,42.87
2023-04-22T20:11:29.577Z,41.69
2023-04-22T20:13:57.036Z,41.37
2023-04-22T20:16:24.420Z,42.20
2023-04-22T20:18:51.592Z,44.05
2023-04-22T20:21:20.039Z,44.13
2023-04-22T20:23:50.308Z,45.63
2023-04-22T20:26:20.904Z,45.96
2023-04-22T20:28:52.225Z,46.03
2023-04-22T20:31:20.761Z,45.86
2023-04-22T20:33:48.591Z,46.56
2023-04-22T20:36:18.230Z,47.71
2023-04-22T20:38:48.904Z,47.60
2023-04-22T20:41:20.199Z,47.81
2023-04-22T20:43:47.341Z,47.68
2023-04-22T20:46:14.507Z,48.32
2023-04-22T20:48:41.637Z,47.98
2023-04-22T20:51:08.886Z,48.75
2023-04-22T20:53:36.259Z,48.92
2023-04-22T20:56:03.697Z,49.27
2023-04-22T20:58:32.480Z,49.75
2023-04-22T21:00:59.680Z,49.91
2023-04-22T21:03:28.070Z,49.57
2023-04-22T21:05:56.842Z,50.44
2023-04-22T21:08:25.532Z,50.81
2023-04-22T21:10:56.000Z,50.38
2023-04-22T21:13:23.861Z,51.51
2023-04-22T21:15:57.783Z,52.39
2023-04-22T21:18:26.586Z,51.80
2023-04-22T21:20:54.989Z,52.12
2023-04-22T21:23:24.612Z,50.59
2023-04-22T21:25:54.829Z,51.60
2023-04-22T21:28:22.965Z,51.28
2023-04-22T21:30:50.636Z,51.94
2023-04-22T21:33:17.642Z,51.81
2023-04-22T21:35:44.785Z,51.85
2023-04-22T21:38:12.014Z,51.89
2023-04-22T21:40:39.038Z,51.84
2023-04-22T21:43:06.129Z,51.87
2023-04-22T21:45:34.540Z,51.28
2023-04-22T21:48:01.641Z,51.40
2023-04-22T21:50:30.445Z,51.39
2023-04-22T21:52:57.961Z,50.92
2023-04-22T21:55:25.011Z,51.81
2023-04-22T21:57:52.174Z,51.84
2023-04-22T22:00:19.419Z,51.17
2023-04-22T22:02:48.417Z,51.88
2023-04-22T22:05:16.122Z,50.76
2023-04-22T22:07:44.830Z,52.38
2023-04-22T22:10:18.219Z,51.39
2023-04-22T22:12:47.001Z,50.64
2023-04-22T22:15:16.149Z,50.42
2023-04-22T22:17:44.764Z,49.86
2023-04-22T22:20:16.816Z,50.96
2023-04-22T22:22:44.551Z,50.17
2023-04-22T22:25:14.904Z,50.59
2023-04-22T22:27:47.217Z,49.85
2023-04-22T22:30:18.982Z,49.48
2023-04-22T22:32:46.406Z,48.68
2023-04-22T22:35:13.884Z,49.24
2023-04-22T22:37:41.119Z,49.27
2023-04-22T22:40:09.081Z,48.83
2023-04-22T22:42:36.307Z,48.65
2023-04-22T22:45:05.124Z,47.71
2023-04-22T22:47:32.639Z,46.72
2023-04-22T22:49:59.888Z,47.02
2023-04-22T22:52:27.515Z,46.59
2023-04-22T22:54:54.576Z,46.44
2023-04-22T22:57:21.627Z,46.54
2023-04-22T22:59:48.679Z,46.46
2023-04-22T23:02:15.822Z,46.32
2023-04-22T23:04:43.386Z,46.19
2023-04-22T23:07:10.727Z,45.86
2023-04-22T23:09:37.718Z,46.06
2023-04-22T23:12:05.491Z,46.05
2023-04-22T23:14:33.421Z,45.69
2023-04-22T23:17:00.616Z,46.20
2023-04-22T23:19:28.623Z,46.12
2023-04-22T23:21:56.510Z,45.63
2023-04-22T23:24:23.852Z,45.88
2023-04-22T23:26:51.299Z,45.59
2023-04-22T23:29:19.580Z,45.61
2023-04-22T23:31:50.414Z,46.09
2023-04-22T23:34:19.027Z,46.02
2023-04-22T23:36:46.212Z,46.98
2023-04-22T23:39:13.377Z,46.26
2023-04-22T23:41:40.381Z,45.01
2023-04-22T23:44:07.335Z,45.43
2023-04-22T23:46:34.512Z,45.45
2023-04-22T23:49:02.043Z,45.64
2023-04-22T23:51:29.797Z,46.30
2023-04-22T23:53:56.844Z,46.20
2023-04-22T23:56:24.282Z,46.30
2023-04-22T23:58:51.646Z,45.86
